This is the latest recevied weather packets stored in our database for station/object KC3DGM. If no packets are shown the sender has not sent any weather packets the latest 1 day(s).
| Time | Temp. | Humidity | Pressure | Rain* | Wind** | Luminosity | Snow |
|---|---|---|---|---|---|---|---|
| 1778090608 | 11.67° C | 74% | 982.1 hPa | 0 mm | - | 48 W/m² | - |
| 1778090001 | 12.78° C | 73% | 981.8 hPa | 0 mm | - | 207 W/m² | - |
| 1778089093 | 11.67° C | 76% | 982.2 hPa | 0 mm | - | 460 W/m² | - |
| 1778088487 | 11.67° C | 80% | 982.1 hPa | 0 mm | - | 441 W/m² | - |
| 1778087881 | 11.11° C | 81% | 981.9 hPa | 0 mm | - | 207 W/m² | - |
| 1778086064 | 10° C | 85% | 981.7 hPa | 0 mm | - | 108 W/m² | - |
| 1778085761 | 10° C | 85% | 981.9 hPa | 0 mm | - | 62 W/m² | - |
| 1778085458 | 10.56° C | 84% | 981.5 hPa | 0 mm | - | 40 W/m² | - |
| 1778084547 | 10.56° C | 85% | 981.6 hPa | 0 mm | - | 155 W/m² | - |
| 1778084244 | 10.56° C | 86% | 981.4 hPa | 0 mm | - | 104 W/m² | - |
| 1778083335 | 11.11° C | 85% | 981.5 hPa | 0 mm | - | 95 W/m² | - |
| 1778081598 | 10.56° C | 86% | 980.9 hPa | 0 mm | - | 346 W/m² | - |
| 1778081295 | 10° C | 89% | 980.8 hPa | 0 mm | - | 220 W/m² | - |
| 1778080992 | 10° C | 90% | 981 hPa | 0 mm | - | 129 W/m² | - |
| 1778080691 | 10° C | 90% | 980.9 hPa | 0 mm | - | 55 W/m² | - |
| 1778080084 | 10° C | 92% | 980.9 hPa | 0 mm | - | 155 W/m² | - |
| 1778079781 | 9.44° C | 92% | 980.7 hPa | 0 mm | - | 123 W/m² | - |
| 1778079478 | 9.44° C | 92% | 980.8 hPa | 0 mm | - | 95 W/m² | - |
| 1778079174 | 9.44° C | 93% | 980.7 hPa | 0 mm | - | 118 W/m² | - |
| 1778078872 | 9.44° C | 93% | 980.9 hPa | 0 mm | - | 120 W/m² | - |
| 1778077662 | 9.44° C | 94% | 980.7 hPa | 0 mm | - | 39 W/m² | - |
| 1778074027 | 8.33° C | 98% | 979.6 hPa | 0 mm | - | 73 W/m² | - |
| 1778073117 | 8.89° C | 99% | 979.4 hPa | 0 mm | - | 85 W/m² | - |
| 1778071907 | 8.33° C | 99% | 979.3 hPa | 0 mm | - | 27 W/m² | - |
| 1778069790 | 8.33° C | 99% | 979.4 hPa | 0 mm | - | 26 W/m² | - |
* Rain latest hour (hover to see other rain measurements)
** Current wind speed in m/s (hover to see current wind gust speed)